Time;durP1;ratioP1;P1;durP2;ratioP2;P2;SDS_P1;SDS_P2;PMS_P1;PMS_P2;Temp;Humidity;BMP_temperature;BMP_pressure;BME280_temperature;BME280_humidity;BME280_pressure;Samples;Min_cycle;Max_cycle;Signal;HPM_P1;HPM_P2
2022/11/23 00:02:19;;;;;;;0.70;0.70;;;;;;;;;;1924125;74;26272;-57
2022/11/23 00:04:46;;;;;;;0.80;0.80;;;;;;;;;;1922260;73;26346;-56
2022/11/23 00:07:13;;;;;;;1.65;0.78;;;;;;;;;;1925262;74;26241;-55
2022/11/23 00:09:41;;;;;;;0.80;0.80;;;;;;;;;;1920635;74;26233;-54
2022/11/23 00:12:08;;;;;;;0.70;0.70;;;;;;;;;;1923453;74;26261;-56
2022/11/23 00:14:36;;;;;;;0.70;0.70;;;;;;;;;;1924746;74;26229;-58
2022/11/23 00:17:03;;;;;;;0.70;0.70;;;;;;;;;;1923902;74;26239;-59
2022/11/23 00:19:30;;;;;;;0.60;0.60;;;;;;;;;;1922642;74;27332;-56
2022/11/23 00:21:58;;;;;;;0.75;0.75;;;;;;;;;;1926783;74;27294;-57
2022/11/23 00:24:25;;;;;;;0.90;0.90;;;;;;;;;;1918946;73;26320;-59
2022/11/23 00:26:54;;;;;;;0.70;0.70;;;;;;;;;;1918438;74;26260;-55
2022/11/23 00:29:21;;;;;;;0.95;0.70;;;;;;;;;;1919476;73;26330;-59
2022/11/23 00:31:48;;;;;;;0.68;0.60;;;;;;;;;;1920464;74;26240;-59
2022/11/23 00:34:15;;;;;;;0.65;0.65;;;;;;;;;;1923378;74;26372;-53
2022/11/23 00:36:43;;;;;;;0.60;0.60;;;;;;;;;;1922699;74;26236;-58
2022/11/23 00:39:10;;;;;;;0.68;0.68;;;;;;;;;;1919452;73;26318;-57
2022/11/23 00:41:37;;;;;;;0.70;0.70;;;;;;;;;;1921512;74;26200;-58
2022/11/23 00:44:04;;;;;;;0.78;0.78;;;;;;;;;;1922585;74;26306;-58
2022/11/23 00:46:32;;;;;;;0.60;0.60;;;;;;;;;;1917582;74;26233;-56
2022/11/23 00:49:00;;;;;;;0.70;0.70;;;;;;;;;;1923451;74;26256;-58
2022/11/23 00:51:29;;;;;;;0.80;0.80;;;;;;;;;;1924713;74;26779;-56
2022/11/23 00:53:57;;;;;;;0.80;0.80;;;;;;;;;;1921004;74;26231;-58
2022/11/23 00:56:24;;;;;;;0.60;0.60;;;;;;;;;;1923343;74;26852;-53
2022/11/23 00:58:52;;;;;;;0.65;0.65;;;;;;;;;;1918930;73;26740;-57
2022/11/23 01:01:21;;;;;;;0.68;0.68;;;;;;;;;;1926747;74;26244;-59
2022/11/23 01:03:49;;;;;;;0.75;0.75;;;;;;;;;;1924272;74;26253;-57
2022/11/23 01:06:18;;;;;;;0.70;0.70;;;;;;;;;;1885885;76;26233;-59
2022/11/23 01:08:52;;;;;;;0.60;0.60;;;;;;;;;;1917924;74;26302;-57
2022/11/23 01:11:20;;;;;;;0.60;0.60;;;;;;;;;;1923270;74;26177;-58
2022/11/23 01:13:48;;;;;;;1.47;0.70;;;;;;;;;;1920983;74;26236;-58
2022/11/23 01:16:17;;;;;;;0.50;0.50;;;;;;;;;;1915904;73;26212;-57
2022/11/23 01:18:44;;;;;;;0.75;0.75;;;;;;;;;;1925087;73;26277;-55
2022/11/23 01:21:11;;;;;;;0.50;0.50;;;;;;;;;;1892461;74;26248;-54
2022/11/23 01:23:39;;;;;;;0.50;0.50;;;;;;;;;;1896999;75;27359;-57
2022/11/23 01:26:10;;;;;;;0.82;0.70;;;;;;;;;;1891836;74;26313;-55
2022/11/23 01:28:38;;;;;;;0.70;0.70;;;;;;;;;;1917919;74;26307;-57
2022/11/23 01:31:06;;;;;;;1.45;0.72;;;;;;;;;;1893132;75;26228;-56
2022/11/23 01:33:34;;;;;;;0.80;0.80;;;;;;;;;;1917059;74;26372;-55
2022/11/23 01:36:02;;;;;;;0.60;0.60;;;;;;;;;;1923339;74;26698;-58
2022/11/23 01:38:30;;;;;;;0.70;0.70;;;;;;;;;;1921262;74;26264;-59
2022/11/23 01:40:57;;;;;;;1.42;0.72;;;;;;;;;;1910068;73;26292;-59
2022/11/23 01:43:24;;;;;;;0.60;0.60;;;;;;;;;;1900819;74;26319;-59
2022/11/23 01:45:59;;;;;;;0.50;0.50;;;;;;;;;;1903818;74;26226;-55
2022/11/23 01:48:27;;;;;;;0.60;0.60;;;;;;;;;;1867753;76;26367;-54
2022/11/23 01:50:56;;;;;;;0.70;0.70;;;;;;;;;;1880559;75;26879;-57
2022/11/23 01:53:24;;;;;;;0.60;0.60;;;;;;;;;;1897739;74;26352;-58
2022/11/23 01:55:52;;;;;;;0.60;0.60;;;;;;;;;;1887663;74;26734;-58
2022/11/23 01:58:20;;;;;;;0.70;0.70;;;;;;;;;;1883210;74;26293;-60
2022/11/23 02:00:48;;;;;;;0.93;0.50;;;;;;;;;;1893467;74;26240;-56
2022/11/23 02:03:17;;;;;;;0.60;0.60;;;;;;;;;;1882531;74;26264;-56
2022/11/23 02:05:45;;;;;;;0.60;0.60;;;;;;;;;;1899036;74;26359;-59
2022/11/23 02:08:14;;;;;;;0.57;0.57;;;;;;;;;;1892880;74;26530;-56
2022/11/23 02:10:41;;;;;;;0.60;0.60;;;;;;;;;;1894415;74;26738;-60
2022/11/23 02:13:10;;;;;;;0.62;0.50;;;;;;;;;;1888582;74;26965;-59
2022/11/23 02:15:37;;;;;;;0.50;0.50;;;;;;;;;;1873661;74;26751;-54
2022/11/23 02:18:06;;;;;;;0.50;0.50;;;;;;;;;;1876734;74;26362;-59
2022/11/23 02:20:33;;;;;;;0.53;0.53;;;;;;;;;;1888980;74;26254;-58
2022/11/23 02:23:05;;;;;;;0.50;0.50;;;;;;;;;;1868231;74;26357;-59
2022/11/23 02:25:46;;;;;;;0.60;0.60;;;;;;;;;;1874030;75;26255;-60
2022/11/23 02:28:18;;;;;;;0.60;0.60;;;;;;;;;;1846869;75;26527;-59
2022/11/23 02:30:47;;;;;;;0.60;0.60;;;;;;;;;;1895001;74;26270;-58
2022/11/23 02:33:14;;;;;;;0.62;0.62;;;;;;;;;;1895185;74;26786;-61
2022/11/23 02:35:48;;;;;;;0.50;0.50;;;;;;;;;;1895486;74;26262;-61
2022/11/23 02:38:16;;;;;;;0.60;0.60;;;;;;;;;;1893051;75;26217;-59
2022/11/23 02:40:43;;;;;;;0.42;0.42;;;;;;;;;;1876930;75;26253;-59
2022/11/23 02:43:11;;;;;;;0.50;0.50;;;;;;;;;;1879464;75;26332;-57
2022/11/23 02:45:43;;;;;;;0.50;0.50;;;;;;;;;;1899573;74;26788;-49
2022/11/23 02:48:10;;;;;;;0.55;0.50;;;;;;;;;;1893385;74;26333;-59
2022/11/23 02:50:37;;;;;;;0.50;0.50;;;;;;;;;;1897847;74;26330;-60
2022/11/23 02:53:05;;;;;;;0.57;0.57;;;;;;;;;;1898186;74;26728;-56
2022/11/23 02:55:32;;;;;;;0.50;0.50;;;;;;;;;;1898130;74;26133;-60
2022/11/23 02:57:59;;;;;;;0.47;0.47;;;;;;;;;;1901951;74;26243;-60
2022/11/23 03:00:27;;;;;;;0.50;0.50;;;;;;;;;;1899748;74;26242;-61
2022/11/23 03:02:54;;;;;;;0.60;0.60;;;;;;;;;;1895016;74;26534;-54
2022/11/23 03:05:21;;;;;;;0.35;0.35;;;;;;;;;;1902627;74;26259;-60
2022/11/23 03:07:48;;;;;;;0.50;0.50;;;;;;;;;;1865438;75;26488;-61
2022/11/23 03:10:16;;;;;;;0.30;0.30;;;;;;;;;;1869372;75;26355;-57
2022/11/23 03:12:43;;;;;;;0.40;0.40;;;;;;;;;;1907770;74;26538;-59
2022/11/23 03:15:11;;;;;;;1.02;0.40;;;;;;;;;;1871255;75;26341;-54
2022/11/23 03:17:38;;;;;;;0.40;0.40;;;;;;;;;;1883638;75;27444;-61
2022/11/23 03:20:06;;;;;;;0.50;0.50;;;;;;;;;;1896967;74;26240;-60
2022/11/23 03:22:33;;;;;;;0.30;0.30;;;;;;;;;;1905943;74;26386;-59
2022/11/23 03:25:00;;;;;;;0.35;0.35;;;;;;;;;;1901844;74;26367;-53
2022/11/23 03:27:30;;;;;;;0.53;0.53;;;;;;;;;;1903990;74;26356;-62
2022/11/23 03:29:57;;;;;;;0.50;0.50;;;;;;;;;;1909561;74;26252;-60
2022/11/23 03:32:24;;;;;;;0.40;0.40;;;;;;;;;;1885459;74;26269;-58
2022/11/23 03:34:51;;;;;;;0.42;0.42;;;;;;;;;;1902522;74;26267;-60
2022/11/23 03:37:19;;;;;;;0.50;0.50;;;;;;;;;;1904201;74;26343;-57
2022/11/23 03:39:46;;;;;;;0.45;0.45;;;;;;;;;;1905807;74;26285;-61
2022/11/23 03:42:13;;;;;;;0.45;0.45;;;;;;;;;;1905740;74;26266;-60
2022/11/23 03:44:40;;;;;;;0.40;0.40;;;;;;;;;;1905043;74;26336;-59
2022/11/23 03:47:08;;;;;;;0.40;0.40;;;;;;;;;;1904826;74;26324;-55
2022/11/23 03:49:36;;;;;;;0.50;0.50;;;;;;;;;;1905594;74;26909;-56
2022/11/23 03:52:03;;;;;;;0.30;0.30;;;;;;;;;;1904885;74;26375;-61
2022/11/23 03:54:31;;;;;;;0.50;0.50;;;;;;;;;;1904787;74;26294;-61
2022/11/23 03:56:58;;;;;;;0.45;0.45;;;;;;;;;;1907127;74;26287;-61
2022/11/23 03:59:25;;;;;;;0.47;0.47;;;;;;;;;;1915915;74;26749;-52
2022/11/23 04:01:52;;;;;;;0.50;0.50;;;;;;;;;;1905718;74;26710;-60
2022/11/23 04:04:20;;;;;;;0.40;0.40;;;;;;;;;;1891945;74;27544;-61
2022/11/23 04:06:47;;;;;;;0.40;0.40;;;;;;;;;;1905847;74;26275;-60
2022/11/23 04:09:14;;;;;;;0.40;0.40;;;;;;;;;;1905669;74;26324;-56
2022/11/23 04:11:42;;;;;;;0.40;0.40;;;;;;;;;;1903193;74;26286;-57
2022/11/23 04:14:09;;;;;;;0.45;0.45;;;;;;;;;;1905758;74;26317;-60
2022/11/23 04:16:36;;;;;;;0.50;0.50;;;;;;;;;;1905610;74;26766;-58
2022/11/23 04:19:03;;;;;;;0.37;0.37;;;;;;;;;;1905645;74;27547;-57
2022/11/23 04:21:31;;;;;;;0.50;0.50;;;;;;;;;;1905816;74;27347;-53
2022/11/23 04:23:59;;;;;;;0.50;0.50;;;;;;;;;;1889680;74;26270;-59
2022/11/23 04:26:26;;;;;;;0.40;0.40;;;;;;;;;;1889283;74;26442;-59
2022/11/23 04:28:53;;;;;;;0.40;0.40;;;;;;;;;;1891759;74;26337;-60
2022/11/23 04:31:20;;;;;;;0.50;0.50;;;;;;;;;;1887965;74;27604;-56
2022/11/23 04:33:48;;;;;;;0.30;0.30;;;;;;;;;;1889683;74;26758;-55
2022/11/23 04:36:15;;;;;;;0.35;0.35;;;;;;;;;;1867555;76;26475;-59
2022/11/23 04:38:42;;;;;;;0.30;0.30;;;;;;;;;;1889280;74;26256;-62
2022/11/23 04:41:10;;;;;;;0.40;0.40;;;;;;;;;;1886910;76;26282;-57
2022/11/23 04:43:37;;;;;;;0.42;0.42;;;;;;;;;;1874034;76;27408;-57
2022/11/23 04:46:05;;;;;;;0.40;0.40;;;;;;;;;;1872194;75;27140;-59
2022/11/23 04:48:32;;;;;;;0.40;0.40;;;;;;;;;;1876534;75;26296;-57
2022/11/23 04:50:59;;;;;;;0.30;0.30;;;;;;;;;;1890811;76;26210;-58
2022/11/23 04:53:26;;;;;;;0.40;0.40;;;;;;;;;;1891376;76;26213;-54
2022/11/23 04:55:54;;;;;;;0.62;0.50;;;;;;;;;;1887784;76;26291;-61
2022/11/23 04:58:21;;;;;;;0.47;0.47;;;;;;;;;;1858765;76;26267;-54
2022/11/23 05:00:48;;;;;;;0.30;0.30;;;;;;;;;;1879694;76;26393;-59
2022/11/23 05:03:16;;;;;;;0.60;0.60;;;;;;;;;;1891354;74;26240;-56
2022/11/23 05:05:43;;;;;;;0.40;0.40;;;;;;;;;;1891752;74;26263;-57
2022/11/23 05:08:11;;;;;;;0.30;0.30;;;;;;;;;;1866339;76;26318;-58
2022/11/23 05:10:38;;;;;;;0.40;0.40;;;;;;;;;;1876061;74;26296;-58
2022/11/23 05:13:05;;;;;;;0.40;0.40;;;;;;;;;;1890179;74;26749;-59
2022/11/23 05:15:33;;;;;;;0.40;0.40;;;;;;;;;;1890900;76;26260;-54
2022/11/23 05:18:05;;;;;;;0.42;0.42;;;;;;;;;;1884467;74;26259;-57
2022/11/23 05:20:33;;;;;;;0.50;0.50;;;;;;;;;;1890573;76;26237;-57
2022/11/23 05:23:00;;;;;;;0.47;0.47;;;;;;;;;;1891884;75;26373;-58
2022/11/23 05:25:28;;;;;;;0.40;0.40;;;;;;;;;;1897797;74;26861;-61
2022/11/23 05:27:55;;;;;;;0.42;0.42;;;;;;;;;;1896780;75;26281;-50
2022/11/23 05:30:22;;;;;;;0.40;0.40;;;;;;;;;;1904222;74;26348;-59
2022/11/23 05:32:50;;;;;;;0.42;0.42;;;;;;;;;;1902194;74;26293;-56
2022/11/23 05:35:17;;;;;;;0.50;0.50;;;;;;;;;;1902049;74;26320;-59
2022/11/23 05:37:45;;;;;;;0.50;0.50;;;;;;;;;;1887434;74;26764;-57
2022/11/23 05:40:12;;;;;;;0.40;0.40;;;;;;;;;;1902630;74;26259;-59
2022/11/23 05:42:39;;;;;;;0.40;0.40;;;;;;;;;;1906290;74;26552;-60
2022/11/23 05:45:07;;;;;;;0.40;0.40;;;;;;;;;;1896126;74;26363;-60
2022/11/23 05:47:34;;;;;;;0.30;0.30;;;;;;;;;;1902579;74;26282;-59
2022/11/23 05:50:02;;;;;;;0.40;0.40;;;;;;;;;;1900015;74;26349;-52
2022/11/23 05:52:29;;;;;;;0.42;0.42;;;;;;;;;;1900027;74;26279;-52
2022/11/23 05:54:56;;;;;;;0.45;0.45;;;;;;;;;;1899651;74;26288;-78
2022/11/23 05:57:24;;;;;;;0.50;0.50;;;;;;;;;;1894329;73;26402;-58
2022/11/23 05:59:51;;;;;;;0.40;0.40;;;;;;;;;;1894985;74;26275;-57
2022/11/23 06:02:19;;;;;;;0.82;0.50;;;;;;;;;;1895422;75;26775;-57
2022/11/23 06:04:46;;;;;;;1.17;0.42;;;;;;;;;;1893689;75;26262;-59
2022/11/23 06:07:13;;;;;;;0.50;0.50;;;;;;;;;;1894275;75;26274;-58
2022/11/23 06:09:40;;;;;;;0.50;0.50;;;;;;;;;;1893282;75;26554;-58
2022/11/23 06:12:08;;;;;;;0.53;0.53;;;;;;;;;;1895034;75;26361;-52
2022/11/23 06:14:35;;;;;;;0.93;0.50;;;;;;;;;;1893946;75;26301;-57
2022/11/23 06:17:02;;;;;;;2.62;0.95;;;;;;;;;;1889965;75;26302;-52
2022/11/23 06:19:30;;;;;;;0.60;0.60;;;;;;;;;;1887746;75;26664;-59
2022/11/23 06:21:57;;;;;;;0.50;0.50;;;;;;;;;;1894477;75;26359;-49
2022/11/23 06:24:24;;;;;;;2.55;0.60;;;;;;;;;;1894866;75;27579;-52
2022/11/23 06:26:52;;;;;;;1.35;0.53;;;;;;;;;;1894296;75;26278;-57
2022/11/23 06:29:19;;;;;;;0.68;0.50;;;;;;;;;;1891293;75;26719;-58
2022/11/23 06:31:47;;;;;;;0.50;0.50;;;;;;;;;;1894963;75;26274;-57
2022/11/23 06:34:14;;;;;;;0.60;0.60;;;;;;;;;;1893632;75;26630;-57
2022/11/23 06:36:42;;;;;;;2.50;0.72;;;;;;;;;;1894761;75;26367;-58
2022/11/23 06:39:09;;;;;;;0.50;0.50;;;;;;;;;;1894386;75;26286;-58
2022/11/23 06:41:37;;;;;;;0.50;0.50;;;;;;;;;;1894521;74;26754;-60
2022/11/23 06:44:05;;;;;;;0.60;0.57;;;;;;;;;;1891486;74;26751;-53
2022/11/23 06:46:32;;;;;;;0.40;0.40;;;;;;;;;;1897248;75;26340;-57
2022/11/23 06:48:59;;;;;;;0.82;0.60;;;;;;;;;;1895328;75;27216;-59
2022/11/23 06:51:26;;;;;;;0.50;0.50;;;;;;;;;;1894793;74;26289;-58
2022/11/23 06:53:54;;;;;;;3.08;0.55;;;;;;;;;;1895041;75;26332;-60
2022/11/23 06:56:21;;;;;;;0.62;0.62;;;;;;;;;;1891315;75;26315;-53
2022/11/23 06:58:48;;;;;;;0.50;0.50;;;;;;;;;;1873200;76;26735;-59
2022/11/23 07:01:16;;;;;;;1.40;0.70;;;;;;;;;;1880393;75;26832;-58
2022/11/23 07:03:43;;;;;;;0.53;0.53;;;;;;;;;;1883857;75;26313;-56
2022/11/23 07:06:10;;;;;;;0.50;0.50;;;;;;;;;;1879076;75;26573;-54
2022/11/23 07:08:42;;;;;;;1.15;0.70;;;;;;;;;;1878172;75;26283;-62
2022/11/23 07:11:06;;;;;;;0.60;0.60;;;;;;;;;;1890831;75;26348;-57
2022/11/23 07:13:34;;;;;;;1.00;0.78;;;;;;;;;;1870000;75;26291;-59
2022/11/23 07:16:01;;;;;;;0.60;0.60;;;;;;;;;;1870164;75;26336;-58
2022/11/23 07:18:28;;;;;;;1.00;0.75;;;;;;;;;;1880746;75;26310;-57
2022/11/23 07:20:58;;;;;;;0.98;0.68;;;;;;;;;;1881903;75;26818;-58
2022/11/23 07:23:26;;;;;;;0.78;0.78;;;;;;;;;;1879216;75;26243;-58
2022/11/23 07:25:53;;;;;;;0.70;0.70;;;;;;;;;;1884589;75;26739;-58
2022/11/23 07:28:20;;;;;;;0.62;0.62;;;;;;;;;;1880292;75;27456;-59
2022/11/23 07:30:50;;;;;;;1.55;0.50;;;;;;;;;;1873608;75;27424;-59
2022/11/23 07:33:17;;;;;;;0.70;0.70;;;;;;;;;;1880703;76;26498;-56
2022/11/23 07:35:44;;;;;;;0.80;0.80;;;;;;;;;;1879138;75;26259;-56
2022/11/23 07:38:12;;;;;;;0.80;0.80;;;;;;;;;;1880098;76;26730;-58
2022/11/23 07:40:39;;;;;;;0.80;0.80;;;;;;;;;;1878899;76;27459;-55
2022/11/23 07:43:07;;;;;;;0.55;0.50;;;;;;;;;;1879428;75;26298;-59
2022/11/23 07:45:35;;;;;;;0.75;0.57;;;;;;;;;;1880381;75;26307;-60
2022/11/23 07:48:04;;;;;;;0.70;0.70;;;;;;;;;;1879261;75;26361;-59
2022/11/23 07:50:32;;;;;;;0.70;0.70;;;;;;;;;;1881426;75;26275;-59
2022/11/23 07:53:01;;;;;;;2.92;0.70;;;;;;;;;;1881108;76;26255;-59
2022/11/23 07:55:29;;;;;;;0.60;0.60;;;;;;;;;;1880433;75;26731;-59
2022/11/23 07:57:57;;;;;;;2.10;0.80;;;;;;;;;;1879824;75;26373;-59
2022/11/23 08:00:25;;;;;;;1.45;0.70;;;;;;;;;;1880583;75;26755;-59
2022/11/23 08:02:52;;;;;;;0.78;0.72;;;;;;;;;;1879302;75;26264;-49
2022/11/23 08:05:20;;;;;;;0.68;0.68;;;;;;;;;;1881758;75;27215;-58
2022/11/23 08:07:48;;;;;;;0.60;0.60;;;;;;;;;;1873600;75;26330;-59
2022/11/23 08:10:15;;;;;;;0.70;0.70;;;;;;;;;;1868028;75;29017;-60
2022/11/23 08:12:42;;;;;;;1.17;0.70;;;;;;;;;;1871593;75;26654;-58
2022/11/23 08:15:10;;;;;;;0.80;0.80;;;;;;;;;;1878774;75;26333;-59
2022/11/23 08:17:38;;;;;;;0.50;0.50;;;;;;;;;;1879936;75;26514;-58
2022/11/23 08:20:05;;;;;;;0.80;0.80;;;;;;;;;;1872789;75;26805;-58
2022/11/23 08:22:33;;;;;;;0.60;0.60;;;;;;;;;;1875004;75;26572;-59
2022/11/23 08:25:00;;;;;;;0.57;0.57;;;;;;;;;;1871855;75;26236;-58
2022/11/23 08:27:27;;;;;;;0.70;0.70;;;;;;;;;;1879956;75;26278;-54
2022/11/23 08:29:54;;;;;;;1.23;0.70;;;;;;;;;;1862829;75;28050;-57
2022/11/23 08:32:22;;;;;;;0.80;0.80;;;;;;;;;;1871792;75;28622;-59
2022/11/23 08:34:49;;;;;;;2.02;0.70;;;;;;;;;;1874614;75;26348;-52
2022/11/23 08:37:16;;;;;;;1.37;0.70;;;;;;;;;;1873492;75;26298;-56
2022/11/23 08:39:43;;;;;;;1.02;0.72;;;;;;;;;;1870024;75;26278;-56
2022/11/23 08:42:11;;;;;;;0.95;0.70;;;;;;;;;;1873924;75;26331;-53
2022/11/23 08:44:38;;;;;;;0.72;0.70;;;;;;;;;;1870203;75;26695;-55
2022/11/23 08:47:05;;;;;;;7.40;0.60;;;;;;;;;;1878616;75;26290;-50
2022/11/23 08:49:32;;;;;;;4.33;0.90;;;;;;;;;;1879073;75;26327;-54
2022/11/23 08:52:00;;;;;;;2.10;0.70;;;;;;;;;;1872351;75;26790;-57
2022/11/23 08:54:27;;;;;;;0.95;0.57;;;;;;;;;;1871228;75;27957;-58
2022/11/23 08:56:54;;;;;;;1.15;0.60;;;;;;;;;;1883939;75;27760;-56
2022/11/23 08:59:21;;;;;;;0.90;0.80;;;;;;;;;;1890328;75;27246;-58
2022/11/23 09:01:49;;;;;;;1.87;0.60;;;;;;;;;;1889223;75;26812;-49
2022/11/23 09:04:16;;;;;;;1.27;1.00;;;;;;;;;;1889402;74;26237;-56
2022/11/23 09:06:43;;;;;;;4.22;0.85;;;;;;;;;;1889557;74;26237;-52
2022/11/23 09:09:11;;;;;;;0.62;0.60;;;;;;;;;;1893065;75;26334;-56
2022/11/23 09:11:38;;;;;;;0.70;0.70;;;;;;;;;;1890339;75;26249;-47
2022/11/23 09:14:05;;;;;;;1.17;0.60;;;;;;;;;;1889255;74;26830;-53
2022/11/23 09:16:32;;;;;;;6.08;0.80;;;;;;;;;;1887966;75;27284;-52
2022/11/23 09:19:00;;;;;;;1.02;0.90;;;;;;;;;;1886915;74;26906;-50
2022/11/23 09:21:32;;;;;;;2.15;0.80;;;;;;;;;;1891835;75;26814;-57
2022/11/23 09:23:56;;;;;;;1.12;0.80;;;;;;;;;;1885473;74;26309;-51
2022/11/23 09:26:24;;;;;;;3.92;1.00;;;;;;;;;;1893322;75;26252;-51
2022/11/23 09:28:51;;;;;;;2.10;1.00;;;;;;;;;;1891822;75;26312;-56
2022/11/23 09:31:18;;;;;;;2.67;1.20;;;;;;;;;;1892808;74;26785;-59
2022/11/23 09:33:45;;;;;;;3.17;1.50;;;;;;;;;;1890946;75;26794;-60
2022/11/23 09:36:13;;;;;;;1.92;1.40;;;;;;;;;;1890410;74;26725;-54
2022/11/23 09:38:40;;;;;;;1.82;1.62;;;;;;;;;;1887714;74;26292;-56
2022/11/23 09:41:25;;;;;;;7.85;2.08;;;;;;;;;;1889274;74;26701;-57
2022/11/23 09:44:03;;;;;;;3.12;1.60;;;;;;;;;;1887651;74;26745;-57
2022/11/23 09:46:32;;;;;;;2.92;1.70;;;;;;;;;;1887857;74;26265;-53
2022/11/23 09:49:07;;;;;;;4.28;2.10;;;;;;;;;;1863048;75;26265;-58
2022/11/23 09:51:36;;;;;;;5.62;1.98;;;;;;;;;;1890817;74;26928;-58
2022/11/23 09:54:05;;;;;;;5.62;2.10;;;;;;;;;;1891558;74;26862;-58
2022/11/23 09:56:33;;;;;;;4.03;2.08;;;;;;;;;;1889970;75;27451;-56
2022/11/23 09:59:02;;;;;;;3.87;2.20;;;;;;;;;;1864171;75;26287;-57
2022/11/23 10:01:30;;;;;;;2.83;1.90;;;;;;;;;;1858055;76;26288;-58
2022/11/23 10:03:57;;;;;;;6.30;2.37;;;;;;;;;;1856477;75;26383;-60
2022/11/23 10:06:26;;;;;;;3.83;1.57;;;;;;;;;;1856567;76;26257;-59
2022/11/23 10:09:12;;;;;;;5.12;1.77;;;;;;;;;;1857441;75;26365;-62
2022/11/23 10:11:40;;;;;;;5.00;1.98;;;;;;;;;;1857412;76;26742;-56
2022/11/23 10:14:09;;;;;;;2.30;2.00;;;;;;;;;;1859067;75;27438;-58
2022/11/23 10:16:55;;;;;;;4.75;1.60;;;;;;;;;;1857662;76;26756;-58
2022/11/23 10:19:26;;;;;;;5.03;1.90;;;;;;;;;;1853101;76;27248;-58
2022/11/23 10:21:55;;;;;;;3.27;1.87;;;;;;;;;;1851691;76;26299;-59
2022/11/23 10:24:27;;;;;;;5.80;1.40;;;;;;;;;;1860923;76;26271;-61
2022/11/23 10:26:53;;;;;;;3.02;1.57;;;;;;;;;;1858117;75;26291;-60
2022/11/23 10:29:35;;;;;;;3.40;1.50;;;;;;;;;;1856432;75;26337;-61
2022/11/23 10:32:03;;;;;;;4.83;1.52;;;;;;;;;;1859837;76;26213;-60
2022/11/23 10:34:35;;;;;;;1.90;1.40;;;;;;;;;;1856212;76;26353;-60
2022/11/23 10:37:02;;;;;;;2.67;1.25;;;;;;;;;;1859886;76;26304;-58
2022/11/23 10:39:30;;;;;;;3.25;1.30;;;;;;;;;;1855755;76;27351;-57
2022/11/23 10:41:59;;;;;;;14.75;1.80;;;;;;;;;;1857445;76;26279;-58
2022/11/23 10:44:29;;;;;;;3.05;1.07;;;;;;;;;;1852054;76;27134;-59
2022/11/23 10:46:56;;;;;;;3.22;1.22;;;;;;;;;;1859202;75;26271;-59
2022/11/23 10:49:33;;;;;;;1.32;1.20;;;;;;;;;;1855409;76;26303;-59
2022/11/23 10:52:30;;;;;;;1.30;1.20;;;;;;;;;;1883096;74;26734;-58
2022/11/23 10:54:59;;;;;;;3.10;1.10;;;;;;;;;;1884847;75;26261;-57
2022/11/23 10:57:35;;;;;;;2.83;1.20;;;;;;;;;;1890716;74;26282;-58
2022/11/23 11:00:11;;;;;;;1.30;1.20;;;;;;;;;;1885356;74;26296;-62
2022/11/23 11:02:44;;;;;;;2.27;0.90;;;;;;;;;;1886852;74;26323;-59
2022/11/23 11:05:13;;;;;;;6.22;1.20;;;;;;;;;;1892175;75;26347;-57
2022/11/23 11:07:40;;;;;;;3.60;1.25;;;;;;;;;;1885104;75;26354;-59
2022/11/23 11:10:09;;;;;;;1.10;1.10;;;;;;;;;;1886542;74;26338;-57
2022/11/23 11:12:38;;;;;;;1.62;0.88;;;;;;;;;;1884243;74;26711;-54
2022/11/23 11:15:12;;;;;;;3.20;1.10;;;;;;;;;;1889190;75;26261;-53
2022/11/23 11:17:40;;;;;;;3.12;1.00;;;;;;;;;;1884034;75;26280;-58
2022/11/23 11:20:26;;;;;;;1.37;0.90;;;;;;;;;;1891204;75;26953;-59
2022/11/23 11:22:55;;;;;;;1.00;0.95;;;;;;;;;;1891217;74;26307;-58
2022/11/23 11:25:30;;;;;;;2.80;1.00;;;;;;;;;;1886258;74;26941;-58
2022/11/23 11:27:58;;;;;;;0.90;0.90;;;;;;;;;;1887049;74;26245;-58
2022/11/23 11:30:27;;;;;;;1.62;0.90;;;;;;;;;;1889929;74;26274;-58
2022/11/23 11:33:05;;;;;;;2.85;0.90;;;;;;;;;;1888307;75;26293;-56
2022/11/23 11:35:34;;;;;;;1.07;0.97;;;;;;;;;;1885042;74;28224;-60
2022/11/23 11:38:12;;;;;;;1.00;0.88;;;;;;;;;;1885817;75;26316;-58
2022/11/23 11:40:50;;;;;;;1.05;1.00;;;;;;;;;;1885771;74;26290;-59
2022/11/23 11:43:19;;;;;;;1.07;0.82;;;;;;;;;;1885729;74;27349;-56
2022/11/23 11:45:47;;;;;;;1.87;0.93;;;;;;;;;;1889100;75;26701;-61
2022/11/23 11:48:16;;;;;;;3.52;0.90;;;;;;;;;;1882882;74;26721;-58
2022/11/23 11:50:55;;;;;;;0.90;0.90;;;;;;;;;;1887035;75;27120;-58
2022/11/23 11:53:21;;;;;;;1.25;1.12;;;;;;;;;;1847917;71;26319;-58
2022/11/23 11:56:05;;;;;;;3.30;1.40;;;;;;;;;;1808522;78;26296;-58
2022/11/23 11:58:34;;;;;;;1.10;1.00;;;;;;;;;;1810424;77;26355;-58
2022/11/23 12:01:09;;;;;;;2.10;0.98;;;;;;;;;;1807307;78;26349;-57
2022/11/23 12:03:41;;;;;;;1.92;1.10;;;;;;;;;;1809257;77;26252;-58
2022/11/23 12:06:13;;;;;;;1.10;1.00;;;;;;;;;;1809832;78;26345;-58
2022/11/23 12:08:47;;;;;;;1.22;1.15;;;;;;;;;;1809951;78;26295;-58
2022/11/23 12:11:15;;;;;;;1.10;1.00;;;;;;;;;;1807502;78;26331;-58
2022/11/23 12:13:45;;;;;;;1.85;1.10;;;;;;;;;;1811255;78;26595;-59
2022/11/23 12:16:14;;;;;;;1.10;1.00;;;;;;;;;;1804912;78;26341;-57
2022/11/23 12:18:43;;;;;;;2.00;1.10;;;;;;;;;;1806169;78;26348;-58
2022/11/23 12:21:28;;;;;;;0.85;0.85;;;;;;;;;;1810226;78;26345;-56
2022/11/23 12:24:04;;;;;;;1.95;1.10;;;;;;;;;;1810061;78;26312;-58
2022/11/23 12:26:45;;;;;;;5.22;1.22;;;;;;;;;;1813291;78;26285;-56
2022/11/23 12:29:30;;;;;;;1.02;0.90;;;;;;;;;;1805357;78;26337;-54
2022/11/23 12:31:59;;;;;;;2.00;0.90;;;;;;;;;;1808975;78;26292;-59
2022/11/23 12:34:44;;;;;;;1.05;0.80;;;;;;;;;;1808394;78;26385;-56
2022/11/23 12:37:30;;;;;;;2.70;1.10;;;;;;;;;;1811351;78;26375;-59
2022/11/23 12:40:06;;;;;;;1.17;0.90;;;;;;;;;;1810829;78;26287;-55
2022/11/23 12:42:40;;;;;;;0.95;0.90;;;;;;;;;;1810045;78;26820;-56
2022/11/23 12:45:09;;;;;;;0.70;0.70;;;;;;;;;;1814536;77;26339;-55
2022/11/23 12:47:41;;;;;;;1.20;0.95;;;;;;;;;;1803862;78;26260;-55
2022/11/23 12:50:13;;;;;;;0.80;0.80;;;;;;;;;;1810125;78;26311;-54
2022/11/23 12:52:47;;;;;;;2.22;1.00;;;;;;;;;;1812302;77;26622;-58
2022/11/23 12:55:16;;;;;;;1.00;1.00;;;;;;;;;;1838363;76;26381;-54
2022/11/23 12:58:02;;;;;;;1.10;1.00;;;;;;;;;;1839215;77;26302;-54
2022/11/23 13:00:43;;;;;;;1.55;0.80;;;;;;;;;;1838766;77;26348;-55
2022/11/23 13:03:23;;;;;;;0.50;0.50;;;;;;;;;;1839585;77;26264;-59
2022/11/23 13:05:55;;;;;;;0.70;0.70;;;;;;;;;;1835071;76;26754;-58
2022/11/23 13:08:24;;;;;;;0.72;0.68;;;;;;;;;;1836635;76;26851;-57
2022/11/23 13:10:56;;;;;;;0.70;0.70;;;;;;;;;;1836917;77;27165;-58
2022/11/23 13:13:27;;;;;;;1.10;0.72;;;;;;;;;;1831886;76;27825;-60
2022/11/23 13:15:56;;;;;;;0.70;0.68;;;;;;;;;;1837043;77;26681;-58
2022/11/23 13:18:25;;;;;;;1.55;0.90;;;;;;;;;;1819304;77;26268;-59
2022/11/23 13:20:54;;;;;;;1.02;0.68;;;;;;;;;;1784561;76;26274;-56
2022/11/23 13:23:21;;;;;;;0.68;0.68;;;;;;;;;;1834596;77;26310;-55
2022/11/23 13:26:07;;;;;;;0.68;0.68;;;;;;;;;;1836914;77;26230;-58
2022/11/23 13:28:34;;;;;;;0.60;0.60;;;;;;;;;;1839290;76;26267;-59
2022/11/23 13:31:05;;;;;;;1.02;0.60;;;;;;;;;;1834928;77;26322;-60
2022/11/23 13:33:34;;;;;;;0.62;0.60;;;;;;;;;;1829215;76;27325;-59
2022/11/23 13:36:02;;;;;;;0.75;0.68;;;;;;;;;;1837361;76;26880;-55
2022/11/23 13:38:30;;;;;;;0.80;0.65;;;;;;;;;;1837543;76;26278;-65
2022/11/23 13:40:58;;;;;;;2.37;0.72;;;;;;;;;;1836311;76;26249;-58
2022/11/23 13:43:26;;;;;;;2.75;0.70;;;;;;;;;;1841298;76;26352;-57
2022/11/23 13:46:12;;;;;;;0.53;0.53;;;;;;;;;;1835013;77;26256;-58
2022/11/23 13:48:43;;;;;;;0.57;0.57;;;;;;;;;;1833472;76;27474;-58
2022/11/23 13:51:11;;;;;;;0.60;0.60;;;;;;;;;;1834169;76;26265;-59
2022/11/23 13:53:39;;;;;;;0.65;0.50;;;;;;;;;;1827295;76;26370;-58
2022/11/23 13:56:23;;;;;;;0.53;0.50;;;;;;;;;;1811767;78;27571;-60
2022/11/23 13:58:51;;;;;;;0.50;0.50;;;;;;;;;;1824038;77;26263;-58
2022/11/23 14:01:37;;;;;;;0.72;0.60;;;;;;;;;;1819366;77;26792;-59
2022/11/23 14:04:12;;;;;;;0.50;0.50;;;;;;;;;;1815990;77;26287;-51
2022/11/23 14:06:53;;;;;;;0.47;0.47;;;;;;;;;;1791529;78;26778;-61
2022/11/23 14:09:34;;;;;;;0.65;0.50;;;;;;;;;;1802100;78;26633;-60
2022/11/23 14:12:03;;;;;;;0.55;0.55;;;;;;;;;;1832315;77;26906;-62
2022/11/23 14:14:32;;;;;;;0.40;0.40;;;;;;;;;;1798891;78;26333;-64
2022/11/23 14:17:20;;;;;;;0.60;0.60;;;;;;;;;;1825718;77;27336;-59
2022/11/23 14:19:54;;;;;;;0.55;0.55;;;;;;;;;;1830719;77;26360;-57
2022/11/23 14:22:23;;;;;;;0.62;0.50;;;;;;;;;;1800637;78;26341;-58
2022/11/23 14:24:58;;;;;;;11.30;0.70;;;;;;;;;;1809573;78;26327;-59
2022/11/23 14:27:27;;;;;;;0.40;0.40;;;;;;;;;;1816658;77;26605;-59
2022/11/23 14:30:01;;;;;;;0.60;0.60;;;;;;;;;;1811649;77;26273;-56
2022/11/23 14:32:30;;;;;;;1.65;0.50;;;;;;;;;;1831905;77;26282;-56
2022/11/23 14:35:02;;;;;;;0.55;0.50;;;;;;;;;;1798937;78;26355;-58
2022/11/23 14:37:48;;;;;;;0.40;0.37;;;;;;;;;;1829015;77;26953;-56
2022/11/23 14:40:19;;;;;;;1.02;0.57;;;;;;;;;;1794908;78;27546;-58
2022/11/23 14:42:48;;;;;;;0.45;0.45;;;;;;;;;;1819200;77;26297;-59
2022/11/23 14:45:15;;;;;;;0.30;0.30;;;;;;;;;;1821777;77;26914;-58
2022/11/23 14:47:43;;;;;;;0.42;0.42;;;;;;;;;;1825106;77;26771;-58
2022/11/23 14:50:17;;;;;;;0.50;0.33;;;;;;;;;;1823655;77;27077;-55
2022/11/23 14:52:46;;;;;;;0.40;0.40;;;;;;;;;;1824566;77;26362;-57
2022/11/23 14:55:17;;;;;;;0.47;0.47;;;;;;;;;;1837596;77;26359;-59
2022/11/23 14:57:46;;;;;;;0.42;0.40;;;;;;;;;;1834726;77;26396;-54